createdAt,value
2022-11-29T00:01:04.813Z,5.30
2022-11-29T00:03:31.501Z,5.30
2022-11-29T00:06:03.607Z,5.30
2022-11-29T00:08:30.205Z,5.40
2022-11-29T00:10:56.844Z,5.30
2022-11-29T00:13:23.452Z,5.20
2022-11-29T00:15:50.055Z,5.30
2022-11-29T00:18:16.637Z,5.10
2022-11-29T00:20:43.225Z,5.00
2022-11-29T00:23:09.810Z,4.90
2022-11-29T00:25:37.931Z,5.00
2022-11-29T00:28:04.617Z,4.90
2022-11-29T00:30:31.312Z,4.90
2022-11-29T00:32:58.039Z,4.90
2022-11-29T00:35:24.659Z,4.90
2022-11-29T00:37:51.274Z,4.90
2022-11-29T00:40:17.937Z,4.90
2022-11-29T00:42:44.535Z,4.80
2022-11-29T00:45:11.516Z,4.70
2022-11-29T00:47:38.137Z,4.70
2022-11-29T00:50:05.142Z,4.70
2022-11-29T00:52:31.752Z,4.70
2022-11-29T00:54:58.353Z,4.90
2022-11-29T00:57:24.946Z,4.80
2022-11-29T00:59:51.521Z,5.00
2022-11-29T01:02:18.158Z,4.70
2022-11-29T01:04:45.042Z,4.60
2022-11-29T01:07:11.764Z,4.80
2022-11-29T01:09:38.363Z,4.80
2022-11-29T01:12:05.056Z,4.80
2022-11-29T01:14:31.652Z,4.80
2022-11-29T01:16:58.320Z,4.90
2022-11-29T01:19:24.962Z,4.80
2022-11-29T01:21:51.573Z,4.60
2022-11-29T01:24:18.176Z,4.50
2022-11-29T01:26:44.831Z,4.50
2022-11-29T01:29:12.702Z,4.50
2022-11-29T01:31:39.301Z,4.50
2022-11-29T01:34:06.791Z,4.50
2022-11-29T01:36:33.674Z,4.50
2022-11-29T01:39:00.912Z,4.60
2022-11-29T01:41:28.738Z,4.50
2022-11-29T01:44:00.311Z,4.50
2022-11-29T01:46:37.637Z,4.60
2022-11-29T01:49:10.131Z,4.60
2022-11-29T01:51:37.868Z,4.80
2022-11-29T01:54:05.142Z,4.90
2022-11-29T01:56:33.402Z,5.10
2022-11-29T01:59:01.595Z,4.90
2022-11-29T02:01:28.466Z,4.80
2022-11-29T02:03:55.408Z,4.70
2022-11-29T02:06:22.065Z,4.60
2022-11-29T02:08:48.835Z,4.60
2022-11-29T02:11:15.475Z,4.80
2022-11-29T02:13:51.651Z,4.90
2022-11-29T02:16:24.726Z,4.90
2022-11-29T02:18:57.264Z,4.80
2022-11-29T02:21:42.694Z,4.70
2022-11-29T02:24:32.638Z,4.60
2022-11-29T02:27:25.652Z,4.70
2022-11-29T02:29:58.489Z,4.60
2022-11-29T02:32:40.384Z,4.50
2022-11-29T02:35:24.189Z,4.50
2022-11-29T02:38:04.623Z,4.50
2022-11-29T02:40:51.237Z,4.50
2022-11-29T02:43:20.830Z,4.50
2022-11-29T02:45:51.389Z,4.50
2022-11-29T02:51:55.855Z,4.50
2022-11-29T02:54:28.421Z,4.40
2022-11-29T02:57:21.224Z,4.50
2022-11-29T02:59:54.791Z,4.50
2022-11-29T03:02:24.487Z,4.50
2022-11-29T03:04:51.461Z,4.50
2022-11-29T03:07:34.124Z,4.50
2022-11-29T03:10:05.369Z,4.50
2022-11-29T03:12:39.941Z,4.50
2022-11-29T03:15:16.928Z,4.50
2022-11-29T03:17:43.496Z,4.50
2022-11-29T03:20:28.949Z,4.50
2022-11-29T03:23:07.783Z,4.60
2022-11-29T03:25:43.657Z,4.60
2022-11-29T03:28:22.459Z,4.50
2022-11-29T03:30:58.772Z,4.50
2022-11-29T03:33:35.735Z,4.50
2022-11-29T03:36:21.042Z,4.50
2022-11-29T03:38:47.802Z,4.70
2022-11-29T03:41:17.475Z,4.60
2022-11-29T03:43:52.021Z,4.80
2022-11-29T03:46:25.610Z,4.60
2022-11-29T03:48:55.473Z,4.60
2022-11-29T03:51:26.198Z,4.50
2022-11-29T03:54:03.898Z,4.50
2022-11-29T03:56:32.000Z,4.60
2022-11-29T03:59:04.712Z,4.80
2022-11-29T04:01:53.578Z,4.70
2022-11-29T04:04:39.193Z,4.60
2022-11-29T04:07:32.975Z,4.70
2022-11-29T04:09:59.603Z,4.70
2022-11-29T04:12:32.615Z,4.80
2022-11-29T04:15:25.615Z,4.80
2022-11-29T04:18:06.626Z,4.80
2022-11-29T04:20:48.154Z,4.80
2022-11-29T04:23:25.435Z,5.00
2022-11-29T04:26:03.666Z,4.80
2022-11-29T04:28:30.276Z,4.70
2022-11-29T04:31:15.931Z,4.70
2022-11-29T04:33:48.428Z,4.80
2022-11-29T04:36:42.033Z,4.70
2022-11-29T04:39:27.490Z,4.60
2022-11-29T04:42:00.303Z,4.60
2022-11-29T04:44:42.525Z,4.50
2022-11-29T04:47:18.478Z,4.50
2022-11-29T04:49:45.083Z,4.60
2022-11-29T04:52:22.687Z,4.60
2022-11-29T04:54:55.436Z,4.60
2022-11-29T04:57:41.028Z,4.50
2022-11-29T05:00:09.932Z,4.50
2022-11-29T05:02:36.601Z,4.40
2022-11-29T05:05:18.833Z,4.40
2022-11-29T05:08:05.690Z,4.40
2022-11-29T05:10:36.416Z,4.40
2022-11-29T05:13:11.752Z,4.40
2022-11-29T05:15:51.055Z,4.40
2022-11-29T05:18:20.726Z,4.40
2022-11-29T05:20:50.576Z,4.40
2022-11-29T05:23:23.071Z,4.30
2022-11-29T05:25:52.703Z,4.30
2022-11-29T05:28:23.639Z,4.30
2022-11-29T05:31:04.703Z,4.30
2022-11-29T05:33:46.326Z,4.30
2022-11-29T05:36:19.042Z,4.30
2022-11-29T05:38:54.731Z,4.30
2022-11-29T05:41:27.375Z,4.30
2022-11-29T05:44:04.705Z,4.30
2022-11-29T05:46:52.307Z,4.30
2022-11-29T05:49:37.479Z,4.30
2022-11-29T05:52:19.436Z,4.30
2022-11-29T05:54:46.321Z,4.30
2022-11-29T05:57:21.747Z,4.30
2022-11-29T05:59:49.791Z,4.30
2022-11-29T06:02:39.685Z,4.30
2022-11-29T06:05:25.233Z,4.30
2022-11-29T06:07:56.216Z,4.30
2022-11-29T06:10:24.352Z,4.30
2022-11-29T06:13:06.282Z,4.30
2022-11-29T06:15:46.522Z,4.30
2022-11-29T06:18:34.013Z,4.20
2022-11-29T06:21:14.575Z,4.20
2022-11-29T06:24:00.127Z,4.30
2022-11-29T06:26:47.387Z,4.30
2022-11-29T06:29:33.191Z,4.30
2022-11-29T06:32:08.342Z,4.30
2022-11-29T06:34:44.651Z,4.20
2022-11-29T06:37:44.234Z,4.20
2022-11-29T06:40:14.132Z,4.30
2022-11-29T06:42:40.743Z,4.30
2022-11-29T06:45:07.705Z,4.30
2022-11-29T06:47:39.636Z,4.30
2022-11-29T06:50:06.558Z,4.30
2022-11-29T06:52:36.275Z,4.30
2022-11-29T06:55:22.048Z,4.30
2022-11-29T06:58:03.196Z,4.30
2022-11-29T07:00:50.085Z,4.30
2022-11-29T07:03:28.944Z,4.30
2022-11-29T07:05:56.929Z,4.30
2022-11-29T07:08:23.811Z,4.30
2022-11-29T07:10:53.014Z,4.40
2022-11-29T07:13:20.518Z,4.30
2022-11-29T07:15:53.853Z,4.30
2022-11-29T07:18:38.898Z,4.40
2022-11-29T07:21:11.544Z,4.40
2022-11-29T07:23:51.044Z,4.40
2022-11-29T07:26:23.811Z,4.40
2022-11-29T07:28:50.399Z,4.40
2022-11-29T07:31:34.529Z,4.40
2022-11-29T07:34:04.223Z,4.40
2022-11-29T07:36:38.250Z,4.50
2022-11-29T07:39:07.883Z,4.70
2022-11-29T07:41:54.984Z,4.70
2022-11-29T07:44:40.463Z,4.60
2022-11-29T07:47:08.275Z,4.60
2022-11-29T07:49:34.901Z,4.70
2022-11-29T07:52:01.545Z,4.60
2022-11-29T07:54:28.216Z,4.70
2022-11-29T07:56:54.795Z,4.70
2022-11-29T07:59:21.432Z,4.60
2022-11-29T08:01:48.113Z,4.60
2022-11-29T08:04:14.822Z,4.70
2022-11-29T08:06:41.424Z,4.60
2022-11-29T08:09:08.020Z,4.80
2022-11-29T08:11:34.711Z,4.70
2022-11-29T08:14:02.177Z,4.70
2022-11-29T08:16:28.847Z,4.80
2022-11-29T08:18:55.552Z,4.80
2022-11-29T08:21:22.320Z,4.80
2022-11-29T08:23:49.649Z,4.80
2022-11-29T08:26:16.694Z,5.00
2022-11-29T08:28:43.400Z,5.00
2022-11-29T08:31:10.954Z,4.90
2022-11-29T08:33:38.600Z,5.00
2022-11-29T08:36:09.691Z,5.00
2022-11-29T08:38:36.318Z,4.90
2022-11-29T08:41:03.350Z,4.90
2022-11-29T08:43:30.513Z,5.00
2022-11-29T08:45:57.900Z,5.00
2022-11-29T08:48:24.686Z,5.20
2022-11-29T08:50:51.928Z,4.80
2022-11-29T08:53:37.259Z,5.00
2022-11-29T08:56:23.557Z,5.00
2022-11-29T08:58:50.742Z,5.00
2022-11-29T09:01:18.651Z,5.00
2022-11-29T09:04:02.452Z,5.00
2022-11-29T09:06:33.319Z,5.10
2022-11-29T09:09:00.965Z,5.20
2022-11-29T09:11:28.244Z,5.10
2022-11-29T09:13:56.695Z,5.00
2022-11-29T09:16:25.269Z,5.10
2022-11-29T09:18:55.953Z,5.10
2022-11-29T09:21:24.051Z,5.40
2022-11-29T09:23:57.551Z,5.20
2022-11-29T09:26:25.146Z,5.30
2022-11-29T09:28:51.844Z,5.30
2022-11-29T09:31:19.993Z,5.70
2022-11-29T09:33:47.310Z,5.90
2022-11-29T09:36:13.975Z,5.80
2022-11-29T09:38:40.983Z,5.70
2022-11-29T09:41:15.004Z,5.70
2022-11-29T09:44:00.682Z,6.00
2022-11-29T09:46:39.078Z,6.10
2022-11-29T09:49:11.827Z,6.20
2022-11-29T09:51:44.714Z,6.40
2022-11-29T09:54:29.998Z,5.80
2022-11-29T09:56:57.120Z,5.60
2022-11-29T09:59:28.973Z,7.00
2022-11-29T10:02:02.655Z,6.40
2022-11-29T10:04:31.006Z,5.80
2022-11-29T10:06:57.624Z,5.50
2022-11-29T10:09:33.343Z,5.50
2022-11-29T10:12:05.695Z,5.50
2022-11-29T10:14:50.264Z,5.50
2022-11-29T10:17:16.833Z,5.40
2022-11-29T10:19:46.001Z,5.50
2022-11-29T10:22:18.722Z,5.50
2022-11-29T10:24:47.215Z,5.60
2022-11-29T10:27:16.936Z,5.60
2022-11-29T10:29:43.582Z,5.60
2022-11-29T10:32:13.830Z,5.60
2022-11-29T10:34:41.053Z,5.60
2022-11-29T10:37:10.874Z,5.50
2022-11-29T10:39:42.136Z,5.50
2022-11-29T10:42:47.172Z,5.60
2022-11-29T10:45:19.291Z,5.80
2022-11-29T10:47:47.056Z,5.70
2022-11-29T10:50:18.842Z,5.70
2022-11-29T10:52:45.458Z,5.60
2022-11-29T10:55:16.409Z,5.50
2022-11-29T10:58:01.596Z,5.50
2022-11-29T11:00:28.241Z,5.70
2022-11-29T11:02:54.839Z,5.80
2022-11-29T11:05:25.977Z,5.60
2022-11-29T11:07:57.202Z,5.70
2022-11-29T11:10:27.122Z,5.70
2022-11-29T11:13:00.931Z,5.70
2022-11-29T11:15:28.934Z,5.70
2022-11-29T11:18:00.044Z,6.00
2022-11-29T11:20:28.964Z,5.80
2022-11-29T11:22:59.959Z,5.80
2022-11-29T11:25:28.620Z,5.80
2022-11-29T11:27:55.523Z,5.80
2022-11-29T11:30:26.956Z,5.90
2022-11-29T11:33:07.002Z,5.90
2022-11-29T11:35:33.967Z,5.90
2022-11-29T11:38:00.643Z,6.00
2022-11-29T11:40:29.169Z,5.90
2022-11-29T11:43:02.648Z,6.00
2022-11-29T11:45:34.943Z,6.00
2022-11-29T11:48:03.942Z,5.90
2022-11-29T11:50:36.237Z,5.90
2022-11-29T11:53:07.590Z,5.90
2022-11-29T11:55:34.389Z,6.00
2022-11-29T11:58:10.169Z,6.10
2022-11-29T12:03:45.547Z,5.90
2022-11-29T12:06:31.129Z,6.00
2022-11-29T12:09:02.134Z,6.00
2022-11-29T12:11:31.785Z,6.00
2022-11-29T12:13:59.180Z,6.10
2022-11-29T12:16:30.175Z,6.10
2022-11-29T12:19:08.761Z,6.10
2022-11-29T12:21:38.657Z,6.20
2022-11-29T12:24:13.392Z,6.10
2022-11-29T12:26:58.567Z,6.10
2022-11-29T12:29:27.486Z,6.10
2022-11-29T12:32:00.324Z,6.10
2022-11-29T12:34:42.839Z,6.20
2022-11-29T12:37:24.836Z,6.20
2022-11-29T12:39:55.918Z,6.20
2022-11-29T12:42:36.152Z,6.20
2022-11-29T12:45:11.015Z,6.20
2022-11-29T12:47:52.245Z,6.30
2022-11-29T12:50:21.921Z,6.20
2022-11-29T12:53:07.409Z,6.30
2022-11-29T12:55:49.966Z,6.20
2022-11-29T12:58:19.595Z,6.20
2022-11-29T13:00:52.279Z,6.00
2022-11-29T13:03:27.052Z,5.90
2022-11-29T13:05:53.702Z,5.80
2022-11-29T13:08:46.894Z,5.90
2022-11-29T13:11:30.611Z,6.00
2022-11-29T13:14:41.414Z,6.10
2022-11-29T13:17:04.914Z,6.00
2022-11-29T13:19:31.541Z,6.10
2022-11-29T13:22:01.321Z,6.00
2022-11-29T13:24:41.237Z,5.90
2022-11-29T13:27:12.921Z,5.80
2022-11-29T13:29:39.595Z,6.00
2022-11-29T13:32:13.033Z,5.90
2022-11-29T13:34:47.325Z,6.00
2022-11-29T13:37:19.059Z,5.90
2022-11-29T13:40:09.400Z,6.10
2022-11-29T13:42:54.839Z,6.00
2022-11-29T13:45:21.427Z,6.00
2022-11-29T13:47:52.820Z,6.10
2022-11-29T13:50:37.105Z,6.00
2022-11-29T13:53:06.060Z,6.00
2022-11-29T13:55:34.110Z,5.80
2022-11-29T13:58:17.731Z,5.90
2022-11-29T14:00:44.595Z,5.80
2022-11-29T14:03:23.445Z,5.80
2022-11-29T14:05:50.075Z,5.70
2022-11-29T14:08:42.463Z,5.60
2022-11-29T14:11:20.434Z,5.60
2022-11-29T14:14:07.329Z,5.70
2022-11-29T14:16:43.215Z,5.60
2022-11-29T14:19:13.013Z,5.50
2022-11-29T14:22:02.417Z,5.50
2022-11-29T14:24:32.109Z,5.70
2022-11-29T14:27:12.519Z,5.60
2022-11-29T14:29:53.587Z,5.50
2022-11-29T14:32:21.437Z,5.60
2022-11-29T14:34:52.423Z,5.70
2022-11-29T14:37:37.866Z,5.60
2022-11-29T14:40:15.738Z,5.60
2022-11-29T14:42:46.569Z,5.60
2022-11-29T14:45:30.383Z,5.60
2022-11-29T14:47:57.315Z,5.60
2022-11-29T14:50:29.509Z,5.60
2022-11-29T14:52:56.236Z,5.50
2022-11-29T14:55:29.612Z,5.40
2022-11-29T14:58:06.188Z,5.50
2022-11-29T15:00:52.424Z,5.30
2022-11-29T15:03:21.197Z,5.40
2022-11-29T15:05:50.799Z,5.30
2022-11-29T15:08:20.834Z,5.30
2022-11-29T15:10:52.295Z,5.50
2022-11-29T15:13:23.149Z,5.40
2022-11-29T15:16:28.080Z,5.30
2022-11-29T15:19:07.200Z,5.20
2022-11-29T15:22:09.825Z,5.20
2022-11-29T15:24:52.741Z,5.30
2022-11-29T15:27:19.577Z,5.20
2022-11-29T15:29:49.183Z,5.10
2022-11-29T15:32:31.011Z,4.90
2022-11-29T15:34:58.630Z,5.00
2022-11-29T15:37:34.344Z,5.10
2022-11-29T15:40:02.639Z,5.10
2022-11-29T15:42:37.531Z,5.00
2022-11-29T15:45:22.147Z,5.00
2022-11-29T15:47:48.901Z,5.10
2022-11-29T15:50:26.385Z,5.00
2022-11-29T15:52:55.301Z,4.90
2022-11-29T15:55:22.112Z,4.90
2022-11-29T15:57:51.512Z,4.80
2022-11-29T16:00:24.128Z,4.80
2022-11-29T16:02:52.536Z,4.80
2022-11-29T16:05:30.164Z,4.80
2022-11-29T16:07:58.407Z,4.80
2022-11-29T16:10:34.866Z,4.80
2022-11-29T16:13:07.636Z,4.80
2022-11-29T16:15:36.245Z,4.70
2022-11-29T16:18:11.442Z,4.60
2022-11-29T16:20:38.295Z,4.50
2022-11-29T16:23:07.999Z,4.70
2022-11-29T16:25:47.779Z,4.70
2022-11-29T16:28:14.626Z,4.60
2022-11-29T16:30:42.345Z,4.50
2022-11-29T16:33:16.470Z,4.40
2022-11-29T16:35:43.087Z,4.60
2022-11-29T16:38:17.393Z,4.70
2022-11-29T16:40:59.788Z,4.60
2022-11-29T16:43:46.906Z,4.70
2022-11-29T16:46:19.671Z,4.70
2022-11-29T16:48:46.326Z,4.60
2022-11-29T16:51:13.470Z,4.40
2022-11-29T16:53:42.234Z,4.60
2022-11-29T16:56:13.168Z,4.50
2022-11-29T16:59:20.645Z,4.70
2022-11-29T17:01:31.127Z,4.80
2022-11-29T17:03:59.464Z,4.70
2022-11-29T17:06:26.866Z,4.40
2022-11-29T17:08:54.770Z,4.40
2022-11-29T17:11:21.514Z,4.30
2022-11-29T17:13:48.580Z,4.60
2022-11-29T17:16:16.331Z,4.30
2022-11-29T17:18:43.435Z,4.30
2022-11-29T17:21:20.563Z,4.20
2022-11-29T17:23:47.210Z,4.30
2022-11-29T17:26:15.349Z,4.20
2022-11-29T17:28:42.613Z,4.20
2022-11-29T17:31:10.535Z,4.30
2022-11-29T17:33:37.213Z,4.40
2022-11-29T17:36:04.871Z,4.40
2022-11-29T17:38:31.564Z,4.40
2022-11-29T17:40:58.227Z,4.50
2022-11-29T17:43:24.904Z,4.50
2022-11-29T17:45:51.636Z,4.40
2022-11-29T17:48:18.697Z,4.30
2022-11-29T17:50:45.319Z,4.30
2022-11-29T17:53:11.926Z,4.20
2022-11-29T17:55:38.544Z,4.00
2022-11-29T17:58:05.188Z,4.10
2022-11-29T18:00:31.803Z,4.00
2022-11-29T18:02:58.640Z,3.80
2022-11-29T18:05:28.978Z,3.60
2022-11-29T18:07:59.737Z,3.70
2022-11-29T18:10:27.380Z,3.90
2022-11-29T18:12:54.388Z,3.90
2022-11-29T18:15:21.079Z,4.10
2022-11-29T18:17:47.704Z,3.90
2022-11-29T18:20:14.651Z,3.90
2022-11-29T18:22:41.470Z,4.00
2022-11-29T18:25:36.928Z,4.10
2022-11-29T18:27:54.867Z,4.00
2022-11-29T18:30:21.660Z,4.00
2022-11-29T18:32:48.302Z,3.90
2022-11-29T18:35:14.954Z,3.90
2022-11-29T18:38:13.575Z,4.20
2022-11-29T18:40:28.183Z,4.30
2022-11-29T18:42:54.831Z,4.00
2022-11-29T18:45:21.430Z,4.20
2022-11-29T18:47:48.063Z,4.00
2022-11-29T18:50:14.867Z,4.10
2022-11-29T18:52:41.477Z,4.00
2022-11-29T18:55:08.144Z,3.90
2022-11-29T18:57:35.488Z,4.00
2022-11-29T19:00:04.028Z,4.00
2022-11-29T19:02:30.804Z,4.20
2022-11-29T19:04:57.447Z,4.30
2022-11-29T19:07:24.076Z,4.20
2022-11-29T19:09:50.704Z,4.20
2022-11-29T19:12:17.327Z,4.20
2022-11-29T19:14:49.461Z,4.30
2022-11-29T19:17:16.555Z,4.10
2022-11-29T19:19:43.338Z,4.20
2022-11-29T19:22:10.188Z,4.20
2022-11-29T19:24:36.791Z,4.10
2022-11-29T19:27:04.625Z,4.30
2022-11-29T19:29:45.781Z,4.20
2022-11-29T19:32:12.560Z,4.30
2022-11-29T19:34:39.315Z,4.20
2022-11-29T19:37:06.305Z,4.20
2022-11-29T19:39:33.889Z,4.20
2022-11-29T19:42:00.508Z,4.20
2022-11-29T19:44:30.009Z,4.30
2022-11-29T19:46:56.888Z,4.20
2022-11-29T19:49:23.525Z,4.00
2022-11-29T19:51:50.163Z,4.10
2022-11-29T19:54:16.787Z,4.00
2022-11-29T19:56:43.575Z,4.00
2022-11-29T19:59:10.252Z,4.00
2022-11-29T20:01:41.563Z,3.90
2022-11-29T20:04:09.522Z,3.80
2022-11-29T20:06:36.161Z,4.00
2022-11-29T20:09:02.980Z,3.70
2022-11-29T20:11:30.161Z,4.00
2022-11-29T20:13:57.925Z,4.20
2022-11-29T20:16:25.115Z,4.00
2022-11-29T20:18:52.896Z,3.90
2022-11-29T20:21:19.508Z,4.00
2022-11-29T20:23:46.177Z,3.80
2022-11-29T20:26:16.558Z,4.00
2022-11-29T20:28:43.270Z,3.90
2022-11-29T20:31:11.903Z,3.90
2022-11-29T20:33:39.367Z,4.00
2022-11-29T20:36:18.143Z,4.00
2022-11-29T20:38:55.310Z,4.00
2022-11-29T20:41:24.976Z,3.90
2022-11-29T20:43:55.817Z,3.90
2022-11-29T20:46:22.843Z,4.00
2022-11-29T20:48:50.937Z,4.10
2022-11-29T20:51:17.656Z,4.00
2022-11-29T20:53:44.540Z,4.10
2022-11-29T20:56:11.250Z,4.20
2022-11-29T20:58:38.402Z,3.90
2022-11-29T21:01:05.383Z,3.70
2022-11-29T21:03:32.171Z,3.50
2022-11-29T21:06:01.226Z,3.60
2022-11-29T21:08:27.853Z,3.50
2022-11-29T21:10:54.812Z,3.60
2022-11-29T21:13:21.998Z,3.70
2022-11-29T21:15:48.881Z,3.80
2022-11-29T21:18:18.503Z,3.60
2022-11-29T21:20:46.985Z,3.60
2022-11-29T21:23:19.620Z,3.50
2022-11-29T21:25:52.343Z,3.90
2022-11-29T21:28:19.181Z,3.90
2022-11-29T21:30:45.915Z,3.60
2022-11-29T21:33:12.631Z,3.40
2022-11-29T21:35:39.868Z,3.60
2022-11-29T21:38:10.019Z,3.80
2022-11-29T21:40:36.680Z,3.80
2022-11-29T21:43:03.278Z,3.60
2022-11-29T21:45:29.894Z,3.60
2022-11-29T21:47:59.317Z,3.50
2022-11-29T21:50:25.941Z,3.70
2022-11-29T21:52:52.663Z,3.60
2022-11-29T21:55:19.285Z,3.70
2022-11-29T21:57:45.938Z,3.40
2022-11-29T22:00:12.881Z,3.50
2022-11-29T22:02:40.245Z,3.30
2022-11-29T22:05:08.344Z,3.50
2022-11-29T22:07:34.985Z,3.50
2022-11-29T22:10:08.549Z,3.30
2022-11-29T22:12:38.418Z,3.40
2022-11-29T22:15:05.427Z,3.00
2022-11-29T22:17:32.031Z,3.10
2022-11-29T22:19:58.625Z,3.10
2022-11-29T22:22:28.131Z,3.20
2022-11-29T22:24:55.048Z,3.10
2022-11-29T22:27:21.739Z,3.10
2022-11-29T22:29:48.771Z,2.80
2022-11-29T22:32:15.468Z,3.30
2022-11-29T22:34:42.088Z,3.40
2022-11-29T22:37:08.735Z,3.40
2022-11-29T22:39:35.335Z,3.30
2022-11-29T22:42:02.026Z,3.00
2022-11-29T22:44:28.666Z,2.70
2022-11-29T22:46:55.636Z,2.90
2022-11-29T22:49:22.311Z,3.00
2022-11-29T22:51:48.969Z,3.00
2022-11-29T22:54:16.364Z,2.90
2022-11-29T22:56:44.228Z,2.50
2022-11-29T22:59:11.094Z,2.90
2022-11-29T23:01:39.042Z,2.90
2022-11-29T23:04:08.924Z,2.90
2022-11-29T23:06:36.724Z,2.60
2022-11-29T23:09:10.527Z,2.60
2022-11-29T23:11:37.686Z,2.50
2022-11-29T23:14:04.336Z,2.40
2022-11-29T23:16:31.041Z,2.20
2022-11-29T23:18:58.255Z,2.10
2022-11-29T23:21:26.163Z,2.00
2022-11-29T23:23:56.304Z,2.20
2022-11-29T23:26:27.698Z,2.00
2022-11-29T23:28:54.739Z,1.90
2022-11-29T23:31:22.060Z,2.20
2022-11-29T23:33:48.979Z,2.30
2022-11-29T23:36:16.043Z,2.30
2022-11-29T23:38:42.799Z,2.40
2022-11-29T23:41:09.898Z,2.30
2022-11-29T23:43:36.971Z,2.30
2022-11-29T23:46:07.783Z,2.20
2022-11-29T23:48:34.472Z,2.50
2022-11-29T23:51:01.280Z,2.40
2022-11-29T23:53:28.019Z,2.40
2022-11-29T23:55:58.858Z,2.10
2022-11-29T23:58:25.999Z,2.40
